createdAt,value
2017-07-08T00:01:23.354Z,6.50
2017-07-08T00:03:51.013Z,7.33
2017-07-08T00:06:19.525Z,7.60
2017-07-08T00:08:47.138Z,8.53
2017-07-08T00:11:15.475Z,8.77
2017-07-08T00:13:43.450Z,7.97
2017-07-08T00:16:11.972Z,7.43
2017-07-08T00:18:39.610Z,7.90
2017-07-08T00:21:07.258Z,7.87
2017-07-08T00:23:34.918Z,6.20
2017-07-08T00:26:02.828Z,7.30
2017-07-08T00:28:30.574Z,6.50
2017-07-08T00:30:58.198Z,7.10
2017-07-08T00:33:26.425Z,12.37
2017-07-08T00:35:54.092Z,6.93
2017-07-08T00:38:22.552Z,6.10
2017-07-08T00:40:52.418Z,6.43
2017-07-08T00:43:20.107Z,9.40
2017-07-08T00:45:48.241Z,7.80
2017-07-08T00:48:16.453Z,8.70
2017-07-08T00:50:44.621Z,7.87
2017-07-08T00:53:12.297Z,7.53
2017-07-08T00:55:39.945Z,7.10
2017-07-08T00:58:07.601Z,7.30
2017-07-08T01:00:35.354Z,7.33
2017-07-08T01:03:03.039Z,8.07
2017-07-08T01:05:30.680Z,7.30
2017-07-08T01:07:59.023Z,7.80
2017-07-08T01:10:26.664Z,6.70
2017-07-08T01:12:55.305Z,7.80
2017-07-08T01:15:22.947Z,6.90
2017-07-08T01:17:51.442Z,7.30
2017-07-08T01:20:19.205Z,6.73
2017-07-08T01:22:47.796Z,7.20
2017-07-08T01:25:15.424Z,7.13
2017-07-08T01:27:43.274Z,6.87
2017-07-08T01:30:11.432Z,8.47
2017-07-08T01:32:39.121Z,7.13
2017-07-08T01:35:06.902Z,7.00
2017-07-08T01:37:34.605Z,10.67
2017-07-08T01:40:02.437Z,8.30
2017-07-08T01:42:30.876Z,7.73
2017-07-08T01:44:58.859Z,7.97
2017-07-08T01:47:27.041Z,8.17
2017-07-08T01:49:55.544Z,7.67
2017-07-08T01:52:25.126Z,8.40
2017-07-08T01:54:52.780Z,9.00
2017-07-08T01:57:20.490Z,7.50
2017-07-08T01:59:48.136Z,9.10
2017-07-08T02:02:16.091Z,7.87
2017-07-08T02:04:43.734Z,7.77
2017-07-08T02:07:12.402Z,8.80
2017-07-08T02:09:40.060Z,8.00
2017-07-08T02:12:08.208Z,8.00
2017-07-08T02:14:36.402Z,8.50
2017-07-08T02:17:04.477Z,7.77
2017-07-08T02:19:32.158Z,8.10
2017-07-08T02:21:59.890Z,7.47
2017-07-08T02:24:27.521Z,7.43
2017-07-08T02:26:55.240Z,9.57
2017-07-08T02:29:22.921Z,9.77
2017-07-08T02:31:50.647Z,7.30
2017-07-08T02:34:18.319Z,7.43
2017-07-08T02:36:46.024Z,6.93
2017-07-08T02:39:13.786Z,7.67
2017-07-08T02:41:41.371Z,9.13
2017-07-08T02:44:08.987Z,10.40
2017-07-08T02:46:36.624Z,11.13
2017-07-08T02:49:04.226Z,11.63
2017-07-08T02:51:31.850Z,10.13
2017-07-08T02:53:59.482Z,8.93
2017-07-08T02:56:27.069Z,11.33
2017-07-08T02:58:55.273Z,10.33
2017-07-08T03:01:23.001Z,10.80
2017-07-08T03:03:50.687Z,9.63
2017-07-08T03:06:18.329Z,9.70
2017-07-08T03:08:46.370Z,9.93
2017-07-08T03:11:13.988Z,13.73
2017-07-08T03:13:41.661Z,10.77
2017-07-08T03:16:09.257Z,10.50
2017-07-08T03:18:36.845Z,10.83
2017-07-08T03:21:04.445Z,11.70
2017-07-08T03:23:32.086Z,12.77
2017-07-08T03:25:59.707Z,10.40
2017-07-08T03:28:27.479Z,10.53
2017-07-08T03:30:56.036Z,15.70
2017-07-08T03:33:23.791Z,12.33
2017-07-08T03:35:51.576Z,10.20
2017-07-08T03:38:20.408Z,9.97
2017-07-08T03:40:48.749Z,10.63
2017-07-08T03:43:16.901Z,10.07
2017-07-08T03:45:45.478Z,10.40
2017-07-08T03:48:13.114Z,13.00
2017-07-08T03:50:41.649Z,11.63
2017-07-08T03:53:09.902Z,9.47
2017-07-08T03:55:37.533Z,9.27
2017-07-08T03:58:05.209Z,10.17
2017-07-08T04:00:33.010Z,9.90
2017-07-08T04:03:00.654Z,9.50
2017-07-08T04:05:28.269Z,11.50
2017-07-08T04:07:55.920Z,9.07
2017-07-08T04:10:23.964Z,10.47
2017-07-08T04:12:52.633Z,12.10
2017-07-08T04:15:21.412Z,10.73
2017-07-08T04:17:49.149Z,11.80
2017-07-08T04:20:16.872Z,8.40
2017-07-08T04:22:44.733Z,9.60
2017-07-08T04:25:12.991Z,12.80
2017-07-08T04:27:40.593Z,9.87
2017-07-08T04:30:08.750Z,12.63
2017-07-08T04:32:36.954Z,9.87
2017-07-08T04:35:04.650Z,9.60
2017-07-08T04:37:32.720Z,13.73
2017-07-08T04:40:00.545Z,8.90
2017-07-08T04:42:28.193Z,13.47
2017-07-08T04:44:56.792Z,9.77
2017-07-08T04:47:24.608Z,9.20
2017-07-08T04:49:52.726Z,8.70
2017-07-08T04:52:20.431Z,8.63
2017-07-08T04:54:48.063Z,9.53
2017-07-08T04:57:15.740Z,9.33
2017-07-08T04:59:44.422Z,9.97
2017-07-08T05:02:12.211Z,11.67
2017-07-08T05:04:39.895Z,10.57
2017-07-08T05:07:14.101Z,9.87
2017-07-08T05:17:09.048Z,9.57
2017-07-08T05:19:37.517Z,10.80
2017-07-08T05:22:06.241Z,9.93
2017-07-08T05:24:33.956Z,9.63
2017-07-08T05:27:01.775Z,10.60
2017-07-08T05:29:29.528Z,14.47
2017-07-08T05:31:57.414Z,10.83
2017-07-08T05:34:25.156Z,14.87
2017-07-08T05:36:52.856Z,15.17
2017-07-08T05:39:20.530Z,11.93
2017-07-08T05:41:48.146Z,14.53
2017-07-08T05:44:16.263Z,12.97
2017-07-08T05:46:43.969Z,20.10
2017-07-08T05:49:11.609Z,16.20
2017-07-08T05:51:39.879Z,17.60
2017-07-08T05:54:08.526Z,15.27
2017-07-08T05:56:36.379Z,14.33
2017-07-08T05:59:04.081Z,16.27
2017-07-08T06:01:31.913Z,20.07
2017-07-08T06:04:00.097Z,13.90
2017-07-08T06:06:27.753Z,14.67
2017-07-08T06:08:58.367Z,16.30
2017-07-08T06:11:25.981Z,15.90
2017-07-08T06:13:53.599Z,14.47
2017-07-08T06:16:21.433Z,14.03
2017-07-08T06:18:50.541Z,13.33
2017-07-08T06:21:18.184Z,21.70
2017-07-08T06:23:45.822Z,16.90
2017-07-08T06:26:13.818Z,14.07
2017-07-08T06:28:41.492Z,20.17
2017-07-08T06:31:10.400Z,16.47
2017-07-08T06:33:38.034Z,20.67
2017-07-08T06:36:06.330Z,14.63
2017-07-08T06:38:34.195Z,15.80
2017-07-08T06:41:01.852Z,18.33
2017-07-08T06:43:29.427Z,20.80
2017-07-08T06:45:57.007Z,17.80
2017-07-08T06:48:24.568Z,30.83
2017-07-08T06:50:52.336Z,14.90
2017-07-08T06:53:20.670Z,18.67
2017-07-08T06:55:48.238Z,28.70
2017-07-08T06:58:15.813Z,26.50
2017-07-08T07:00:43.449Z,20.10
2017-07-08T07:03:11.000Z,23.80
2017-07-08T07:05:38.761Z,18.67
2017-07-08T07:08:08.207Z,18.77
2017-07-08T07:10:35.766Z,15.23
2017-07-08T07:13:03.331Z,20.47
2017-07-08T07:15:30.922Z,16.10
2017-07-08T07:17:58.580Z,14.53
2017-07-08T07:20:26.223Z,13.50
2017-07-08T07:22:53.868Z,19.10
2017-07-08T07:25:21.640Z,13.80
2017-07-08T07:27:49.466Z,16.20
2017-07-08T07:30:17.192Z,13.43
2017-07-08T07:32:45.032Z,13.03
2017-07-08T07:35:12.666Z,12.00
2017-07-08T07:37:40.258Z,11.73
2017-07-08T07:40:07.993Z,12.53
2017-07-08T07:42:35.912Z,12.13
2017-07-08T07:45:03.511Z,12.70
2017-07-08T07:47:31.096Z,11.63
2017-07-08T07:49:58.657Z,11.67
2017-07-08T07:52:26.275Z,14.00
2017-07-08T07:54:53.844Z,11.90
2017-07-08T07:57:21.676Z,15.63
2017-07-08T07:59:49.316Z,12.33
2017-07-08T08:02:16.927Z,20.57
2017-07-08T08:04:44.793Z,18.87
2017-07-08T08:07:12.435Z,10.43
2017-07-08T08:09:40.151Z,14.23
2017-07-08T08:12:07.713Z,8.93
2017-07-08T08:14:35.264Z,10.37
2017-07-08T08:17:03.196Z,13.80
2017-07-08T08:19:31.010Z,10.40
2017-07-08T08:21:59.464Z,9.93
2017-07-08T08:24:27.075Z,10.60
2017-07-08T08:26:54.611Z,8.80
2017-07-08T08:29:22.184Z,10.13
2017-07-08T08:31:49.834Z,9.83
2017-07-08T08:34:18.772Z,10.60
2017-07-08T08:36:46.326Z,10.17
2017-07-08T08:39:13.974Z,10.10
2017-07-08T08:41:41.558Z,9.47
2017-07-08T08:44:09.511Z,15.33
2017-07-08T08:46:37.233Z,12.03
2017-07-08T08:49:04.974Z,8.97
2017-07-08T08:51:33.372Z,9.77
2017-07-08T08:54:00.969Z,15.87
2017-07-08T08:56:28.530Z,10.27
2017-07-08T08:58:56.127Z,13.10
2017-07-08T09:01:23.733Z,9.20
2017-07-08T09:03:51.298Z,9.83
2017-07-08T09:06:18.919Z,9.60
2017-07-08T09:08:46.489Z,9.70
2017-07-08T09:11:14.027Z,9.93
2017-07-08T09:13:41.637Z,8.70
2017-07-08T09:16:09.250Z,8.30
2017-07-08T09:18:36.839Z,9.40
2017-07-08T09:21:04.596Z,10.47
2017-07-08T09:23:32.174Z,9.43
2017-07-08T09:25:59.700Z,8.13
2017-07-08T09:28:27.270Z,8.20
2017-07-08T09:30:54.964Z,7.30
2017-07-08T09:33:22.588Z,7.70
2017-07-08T09:35:50.429Z,8.97
2017-07-08T09:38:18.018Z,7.80
2017-07-08T09:40:46.402Z,8.70
2017-07-08T09:43:13.946Z,7.37
2017-07-08T09:45:41.539Z,8.30
2017-07-08T09:48:09.777Z,6.13
2017-07-08T09:50:37.539Z,8.30
2017-07-08T09:53:05.132Z,10.33
2017-07-08T09:55:33.007Z,6.53
2017-07-08T09:58:00.548Z,8.57
2017-07-08T10:00:28.154Z,5.97
2017-07-08T10:02:56.020Z,7.37
2017-07-08T10:05:23.659Z,6.97
2017-07-08T10:07:51.266Z,7.10
2017-07-08T10:10:19.146Z,8.40
2017-07-08T10:12:46.911Z,6.50
2017-07-08T10:15:14.502Z,7.03
2017-07-08T10:17:42.053Z,7.33
2017-07-08T10:20:09.819Z,8.30
2017-07-08T10:22:37.454Z,6.23
2017-07-08T10:25:05.129Z,6.37
2017-07-08T10:27:32.698Z,5.80
2017-07-08T10:30:00.319Z,7.37
2017-07-08T10:32:28.616Z,5.90
2017-07-08T10:34:56.361Z,5.47
2017-07-08T10:37:24.115Z,9.00
2017-07-08T10:39:51.975Z,6.83
2017-07-08T10:42:19.572Z,5.80
2017-07-08T10:44:47.604Z,5.30
2017-07-08T10:47:15.524Z,6.30
2017-07-08T10:49:43.291Z,6.30
2017-07-08T10:52:10.919Z,8.53
2017-07-08T10:54:38.593Z,5.47
2017-07-08T10:57:06.172Z,5.40
2017-07-08T10:59:33.944Z,10.10
2017-07-08T11:02:01.535Z,8.10
2017-07-08T11:04:29.890Z,7.03
2017-07-08T11:06:57.671Z,6.60
2017-07-08T11:09:25.468Z,6.77
2017-07-08T11:11:53.015Z,6.00
2017-07-08T11:14:20.640Z,6.50
2017-07-08T11:16:48.217Z,6.53
2017-07-08T11:19:15.742Z,5.90
2017-07-08T11:21:43.310Z,6.17
2017-07-08T11:24:10.961Z,14.33
2017-07-08T11:26:39.398Z,5.50
2017-07-08T11:29:06.927Z,5.90
2017-07-08T11:31:34.535Z,7.37
2017-07-08T11:34:02.149Z,5.50
2017-07-08T11:36:29.915Z,5.40
2017-07-08T11:38:57.545Z,5.03
2017-07-08T11:41:25.161Z,7.93
2017-07-08T11:43:52.936Z,4.80
2017-07-08T11:46:20.498Z,6.77
2017-07-08T11:48:48.247Z,5.07
2017-07-08T11:51:15.850Z,7.73
2017-07-08T11:53:43.514Z,9.30
2017-07-08T11:56:11.159Z,5.27
2017-07-08T11:58:39.035Z,5.80
2017-07-08T12:01:06.614Z,5.90
2017-07-08T12:03:34.697Z,5.90
2017-07-08T12:06:02.491Z,6.53
2017-07-08T12:08:30.087Z,5.80
2017-07-08T12:10:57.877Z,5.17
2017-07-08T12:13:25.626Z,5.33
2017-07-08T12:15:53.294Z,5.60
2017-07-08T12:18:21.041Z,7.53
2017-07-08T12:20:48.831Z,5.63
2017-07-08T12:23:16.876Z,6.00
2017-07-08T12:25:44.518Z,5.37
2017-07-08T12:28:12.101Z,4.40
2017-07-08T12:30:39.717Z,6.53
2017-07-08T12:33:07.260Z,6.23
2017-07-08T12:35:35.832Z,6.03
2017-07-08T12:38:03.435Z,5.57
2017-07-08T12:40:31.033Z,6.63
2017-07-08T12:42:58.833Z,7.00
2017-07-08T12:45:26.433Z,9.97
2017-07-08T12:47:54.855Z,6.80
2017-07-08T12:50:22.421Z,6.10
2017-07-08T12:52:50.017Z,6.40
2017-07-08T12:55:17.567Z,7.60
2017-07-08T12:57:45.321Z,8.50
2017-07-08T13:00:13.765Z,7.83
2017-07-08T13:02:41.394Z,8.30
2017-07-08T13:05:09.236Z,10.70
2017-07-08T13:07:37.316Z,11.40
2017-07-08T13:10:06.116Z,12.40
2017-07-08T13:12:34.619Z,8.33
2017-07-08T13:15:03.537Z,6.27
2017-07-08T13:17:33.581Z,7.30
2017-07-08T13:20:01.616Z,8.87
2017-07-08T13:22:29.345Z,7.73
2017-07-08T13:24:56.973Z,11.33
2017-07-08T13:27:25.923Z,7.57
2017-07-08T13:29:53.770Z,7.40
2017-07-08T13:32:21.404Z,6.77
2017-07-08T13:34:49.110Z,6.70
2017-07-08T13:37:16.766Z,5.73
2017-07-08T13:39:44.651Z,6.13
2017-07-08T13:42:13.211Z,10.33
2017-07-08T13:44:42.090Z,6.13
2017-07-08T13:47:11.017Z,5.13
2017-07-08T13:49:38.744Z,4.97
2017-07-08T13:52:06.323Z,5.40
2017-07-08T13:54:35.852Z,4.43
2017-07-08T13:57:03.742Z,5.73
2017-07-08T13:59:31.482Z,5.97
2017-07-08T14:01:59.147Z,4.30
2017-07-08T14:04:27.757Z,8.13
2017-07-08T14:06:58.914Z,5.40
2017-07-08T14:09:31.254Z,5.83
2017-07-08T14:12:01.016Z,5.20
2017-07-08T14:14:31.092Z,5.40
2017-07-08T14:16:58.772Z,6.10
2017-07-08T14:19:26.485Z,7.90
2017-07-08T14:21:55.233Z,5.17
2017-07-08T14:24:22.982Z,5.70
2017-07-08T14:26:50.601Z,27.90
2017-07-08T14:29:18.266Z,6.67
2017-07-08T14:31:45.885Z,5.57
2017-07-08T14:34:13.489Z,6.30
2017-07-08T14:36:41.203Z,5.37
2017-07-08T14:39:08.825Z,5.23
2017-07-08T14:41:36.505Z,6.30
2017-07-08T14:44:04.286Z,5.13
2017-07-08T14:46:32.213Z,6.30
2017-07-08T14:49:00.120Z,5.60
2017-07-08T14:51:28.685Z,5.47
2017-07-08T14:53:56.738Z,5.03
2017-07-08T14:56:24.362Z,7.67
2017-07-08T14:58:51.981Z,5.37
2017-07-08T15:01:20.439Z,5.90
2017-07-08T15:03:48.092Z,5.67
2017-07-08T15:06:15.622Z,5.00
2017-07-08T15:08:43.578Z,4.50
2017-07-08T15:11:11.753Z,13.67
2017-07-08T15:13:39.500Z,4.83
2017-07-08T15:16:07.943Z,7.70
2017-07-08T15:18:38.007Z,6.40
2017-07-08T15:21:06.211Z,5.30
2017-07-08T15:23:34.213Z,5.60
2017-07-08T15:26:02.464Z,5.80
2017-07-08T15:28:30.995Z,4.50
2017-07-08T15:30:58.696Z,6.27
2017-07-08T15:33:28.297Z,6.80
2017-07-08T15:35:56.297Z,8.47
2017-07-08T15:38:24.327Z,5.80
2017-07-08T15:40:53.637Z,7.93
2017-07-08T15:43:21.805Z,7.70
2017-07-08T15:45:50.677Z,7.80
2017-07-08T15:48:19.443Z,9.03
2017-07-08T15:50:47.914Z,8.30
2017-07-08T15:53:16.846Z,7.70
2017-07-08T15:55:46.167Z,6.00
2017-07-08T15:58:13.800Z,7.53
2017-07-08T16:00:41.543Z,7.00
2017-07-08T16:03:09.671Z,6.50
2017-07-08T16:05:37.510Z,6.57
2017-07-08T16:08:06.955Z,9.80
2017-07-08T16:10:35.330Z,6.23
2017-07-08T16:13:03.082Z,7.23
2017-07-08T16:15:31.704Z,9.10
2017-07-08T16:17:59.494Z,7.70
2017-07-08T16:20:27.394Z,9.70
2017-07-08T16:22:56.455Z,8.50
2017-07-08T16:25:24.131Z,7.03
2017-07-08T16:27:52.712Z,8.90
2017-07-08T16:30:20.655Z,10.33
2017-07-08T16:32:48.944Z,12.73
2017-07-08T16:35:19.443Z,10.03
2017-07-08T16:37:47.270Z,8.57
2017-07-08T16:40:15.110Z,7.50
2017-07-08T16:42:44.025Z,7.80
2017-07-08T16:45:11.674Z,12.43
2017-07-08T16:47:39.859Z,8.40
2017-07-08T16:50:07.791Z,7.87
2017-07-08T16:52:35.420Z,11.07
2017-07-08T16:55:02.994Z,7.47
2017-07-08T16:57:30.774Z,11.43
2017-07-08T16:59:58.375Z,8.80
2017-07-08T17:02:26.182Z,8.17
2017-07-08T17:04:53.939Z,7.67
2017-07-08T17:07:22.388Z,7.20
2017-07-08T17:09:50.642Z,9.83
2017-07-08T17:12:18.317Z,8.40
2017-07-08T17:14:45.875Z,8.30
2017-07-08T17:17:13.487Z,10.17
2017-07-08T17:19:41.240Z,6.67
2017-07-08T17:22:08.970Z,6.73
2017-07-08T17:24:37.517Z,6.57
2017-07-08T17:27:05.395Z,6.73
2017-07-08T17:29:33.112Z,7.10
2017-07-08T17:32:01.201Z,9.67
2017-07-08T17:34:29.896Z,8.50
2017-07-08T17:36:59.552Z,9.37
2017-07-08T17:39:27.685Z,9.47
2017-07-08T17:41:55.560Z,10.13
2017-07-08T17:44:23.180Z,19.00
2017-07-08T17:46:50.840Z,9.27
2017-07-08T17:49:18.433Z,11.10
2017-07-08T17:51:46.292Z,11.67
2017-07-08T17:54:13.920Z,14.70
2017-07-08T17:56:41.512Z,15.27
2017-07-08T17:59:09.134Z,13.40
2017-07-08T18:01:36.721Z,10.47
2017-07-08T18:04:04.327Z,10.03
2017-07-08T18:06:31.870Z,11.73
2017-07-08T18:08:59.499Z,15.40
2017-07-08T18:11:27.027Z,8.93
2017-07-08T18:13:54.612Z,9.40
2017-07-08T18:16:22.168Z,12.63
2017-07-08T18:18:49.918Z,9.80
2017-07-08T18:21:17.531Z,14.50
2017-07-08T18:23:45.134Z,9.10
2017-07-08T18:26:12.817Z,8.43
2017-07-08T18:28:40.379Z,7.87
2017-07-08T18:31:07.982Z,8.70
2017-07-08T18:33:35.571Z,9.30
2017-07-08T18:36:03.125Z,11.77
2017-07-08T18:38:30.687Z,11.50
2017-07-08T18:40:58.297Z,8.93
2017-07-08T18:43:26.061Z,9.17
2017-07-08T18:45:53.629Z,15.10
2017-07-08T18:48:21.207Z,10.90
2017-07-08T18:50:49.627Z,8.17
2017-07-08T18:53:20.339Z,7.40
2017-07-08T18:55:50.903Z,7.47
2017-07-08T18:58:21.481Z,7.63
2017-07-08T19:00:49.085Z,8.33
2017-07-08T19:03:16.709Z,11.17
2017-07-08T19:05:44.583Z,13.30
2017-07-08T19:08:12.174Z,15.87
2017-07-08T19:10:40.918Z,19.00
2017-07-08T19:13:08.457Z,14.93
2017-07-08T19:15:37.399Z,12.63
2017-07-08T19:18:05.802Z,16.90
2017-07-08T19:20:33.457Z,11.70
2017-07-08T19:23:01.128Z,11.73
2017-07-08T19:25:29.234Z,9.63
2017-07-08T19:27:58.475Z,8.83
2017-07-08T19:30:26.549Z,7.93
2017-07-08T19:32:54.075Z,10.33
2017-07-08T19:35:21.862Z,8.80
2017-07-08T19:37:49.467Z,8.63
2017-07-08T19:40:17.091Z,6.67
2017-07-08T19:42:45.044Z,12.23
2017-07-08T19:45:12.704Z,7.53
2017-07-08T19:47:40.716Z,8.57
2017-07-08T19:50:08.309Z,7.77
2017-07-08T19:52:35.882Z,8.33
2017-07-08T19:55:04.606Z,7.00
2017-07-08T19:57:32.197Z,10.90
2017-07-08T20:00:00.439Z,8.13
2017-07-08T20:02:28.087Z,9.73
2017-07-08T20:04:55.892Z,8.90
2017-07-08T20:07:24.487Z,8.57
2017-07-08T20:09:52.245Z,7.70
2017-07-08T20:12:19.838Z,8.67
2017-07-08T20:14:47.431Z,7.40
2017-07-08T20:17:16.467Z,8.93
2017-07-08T20:19:44.070Z,8.23
2017-07-08T20:22:14.273Z,8.10
2017-07-08T20:24:41.874Z,10.60
2017-07-08T20:27:10.263Z,7.30
2017-07-08T20:29:39.315Z,6.50
2017-07-08T20:32:07.058Z,7.87
2017-07-08T20:34:34.695Z,6.97
2017-07-08T20:37:02.233Z,7.73
2017-07-08T20:39:29.936Z,7.13
2017-07-08T20:41:57.526Z,7.37
2017-07-08T20:44:25.148Z,7.57
2017-07-08T20:46:52.754Z,7.00
2017-07-08T20:49:26.237Z,7.93
2017-07-08T20:51:53.860Z,8.30
2017-07-08T20:54:21.384Z,10.40
2017-07-08T20:56:48.972Z,8.27
2017-07-08T20:59:16.569Z,8.67
2017-07-08T21:01:44.138Z,8.23
2017-07-08T21:04:11.888Z,8.50
2017-07-08T21:06:39.493Z,11.70
2017-07-08T21:09:07.075Z,8.60
2017-07-08T21:11:35.428Z,7.30
2017-07-08T21:14:03.013Z,7.33
2017-07-08T21:16:30.674Z,7.83
2017-07-08T21:18:58.449Z,7.67
2017-07-08T21:21:26.002Z,7.20
2017-07-08T21:23:53.700Z,7.03
2017-07-08T21:26:21.237Z,6.87
2017-07-08T21:28:48.887Z,9.30
2017-07-08T21:31:16.493Z,6.80
2017-07-08T21:33:44.256Z,9.30
2017-07-08T21:36:11.867Z,6.97
2017-07-08T21:38:39.710Z,13.40
2017-07-08T21:41:07.255Z,8.57
2017-07-08T21:43:34.836Z,6.33
2017-07-08T21:46:02.405Z,6.70
2017-07-08T21:48:30.156Z,6.87
2017-07-08T21:50:57.785Z,7.93
2017-07-08T21:53:25.976Z,7.27
2017-07-08T21:55:53.618Z,7.07
2017-07-08T21:58:21.223Z,6.93
2017-07-08T22:00:48.876Z,6.60
2017-07-08T22:03:16.468Z,7.13
2017-07-08T22:05:44.255Z,6.43
2017-07-08T22:08:11.850Z,7.27
2017-07-08T22:10:39.483Z,6.90
2017-07-08T22:13:07.258Z,7.03
2017-07-08T22:15:34.824Z,7.90
2017-07-08T22:18:03.222Z,7.70
2017-07-08T22:20:30.805Z,7.30
2017-07-08T22:22:58.393Z,7.60
2017-07-08T22:25:25.943Z,8.50
2017-07-08T22:27:53.479Z,7.90
2017-07-08T22:30:21.494Z,8.07
2017-07-08T22:32:49.057Z,7.77
2017-07-08T22:35:16.861Z,7.47
2017-07-08T22:37:44.444Z,6.70
2017-07-08T22:40:12.355Z,7.23
2017-07-08T22:42:39.975Z,6.70
2017-07-08T22:45:07.581Z,7.63
2017-07-08T22:47:35.156Z,6.90
2017-07-08T22:50:02.937Z,7.53
2017-07-08T22:52:30.523Z,7.67
2017-07-08T22:54:58.192Z,7.60
2017-07-08T22:57:25.753Z,7.87
2017-07-08T22:59:53.572Z,8.90
2017-07-08T23:02:21.254Z,8.10
2017-07-08T23:04:48.834Z,7.67
2017-07-08T23:07:16.641Z,9.00
2017-07-08T23:09:44.212Z,7.63
2017-07-08T23:12:11.787Z,9.60
2017-07-08T23:14:39.409Z,7.50
2017-07-08T23:17:07.086Z,8.43
2017-07-08T23:19:34.726Z,7.00
2017-07-08T23:22:02.480Z,7.20
2017-07-08T23:24:30.088Z,7.30
2017-07-08T23:26:57.669Z,8.27
2017-07-08T23:29:25.259Z,12.00
2017-07-08T23:31:52.885Z,7.50
2017-07-08T23:34:20.418Z,8.67
2017-07-08T23:36:47.970Z,8.10
2017-07-08T23:39:15.586Z,7.00
2017-07-08T23:41:43.206Z,7.80
2017-07-08T23:44:10.781Z,7.87
2017-07-08T23:46:38.365Z,8.30
2017-07-08T23:49:05.941Z,7.37
2017-07-08T23:51:33.708Z,8.40
2017-07-08T23:54:01.282Z,9.00
2017-07-08T23:56:28.944Z,9.73
2017-07-08T23:58:56.855Z,7.20
